sensor_id;sensor_type;location;lat;lon;timestamp;pressure;altitude;pressure_sealevel;temperature;humidity
51099;BME280;37146;48.210;16.234;2022-10-13T00:00:23;99535.69;;;7.40;100.00
51099;BME280;37146;48.210;16.234;2022-10-13T00:02:49;99539.50;;;7.31;100.00
51099;BME280;37146;48.210;16.234;2022-10-13T00:05:14;99541.19;;;7.34;100.00
51099;BME280;37146;48.210;16.234;2022-10-13T00:07:39;99542.41;;;7.23;100.00
51099;BME280;37146;48.210;16.234;2022-10-13T00:10:05;99538.06;;;7.19;100.00
51099;BME280;37146;48.210;16.234;2022-10-13T00:12:32;99539.94;;;7.16;100.00
51099;BME280;37146;48.210;16.234;2022-10-13T00:14:58;99534.06;;;7.36;100.00
51099;BME280;37146;48.210;16.234;2022-10-13T00:17:23;99540.22;;;7.36;100.00
51099;BME280;37146;48.210;16.234;2022-10-13T00:19:48;99543.03;;;7.32;100.00
51099;BME280;37146;48.210;16.234;2022-10-13T00:22:13;99536.44;;;7.45;100.00
51099;BME280;37146;48.210;16.234;2022-10-13T00:24:39;99542.09;;;7.63;100.00
51099;BME280;37146;48.210;16.234;2022-10-13T00:27:04;99535.38;;;7.51;100.00
51099;BME280;37146;48.210;16.234;2022-10-13T00:29:29;99532.66;;;7.52;100.00
51099;BME280;37146;48.210;16.234;2022-10-13T00:31:54;99527.25;;;7.55;100.00
51099;BME280;37146;48.210;16.234;2022-10-13T00:34:19;99519.06;;;7.62;100.00
51099;BME280;37146;48.210;16.234;2022-10-13T00:36:45;99526.88;;;7.66;100.00
51099;BME280;37146;48.210;16.234;2022-10-13T00:39:10;99524.53;;;7.57;100.00
51099;BME280;37146;48.210;16.234;2022-10-13T00:41:35;99527.31;;;7.54;100.00
51099;BME280;37146;48.210;16.234;2022-10-13T00:44:02;99513.00;;;7.56;100.00
51099;BME280;37146;48.210;16.234;2022-10-13T00:46:29;99515.47;;;7.63;100.00
51099;BME280;37146;48.210;16.234;2022-10-13T00:48:55;99514.06;;;7.51;100.00
51099;BME280;37146;48.210;16.234;2022-10-13T00:51:23;99517.66;;;7.50;100.00
51099;BME280;37146;48.210;16.234;2022-10-13T00:53:50;99516.75;;;7.51;100.00
51099;BME280;37146;48.210;16.234;2022-10-13T00:56:16;99514.78;;;7.56;100.00
51099;BME280;37146;48.210;16.234;2022-10-13T00:58:42;99522.00;;;7.52;100.00
51099;BME280;37146;48.210;16.234;2022-10-13T01:01:08;99519.53;;;7.46;100.00
51099;BME280;37146;48.210;16.234;2022-10-13T01:03:33;99515.31;;;7.39;100.00
51099;BME280;37146;48.210;16.234;2022-10-13T01:05:59;99521.28;;;7.47;100.00
51099;BME280;37146;48.210;16.234;2022-10-13T01:08:26;99515.19;;;7.43;100.00
51099;BME280;37146;48.210;16.234;2022-10-13T01:11:18;99517.13;;;7.38;100.00
51099;BME280;37146;48.210;16.234;2022-10-13T01:21:29;99504.13;;;7.56;100.00
51099;BME280;37146;48.210;16.234;2022-10-13T01:24:03;99503.00;;;7.65;100.00
51099;BME280;37146;48.210;16.234;2022-10-13T01:26:55;99499.78;;;7.53;100.00
51099;BME280;37146;48.210;16.234;2022-10-13T01:34:25;99499.16;;;7.45;100.00
51099;BME280;37146;48.210;16.234;2022-10-13T01:42:00;99495.81;;;7.38;100.00
51099;BME280;37146;48.210;16.234;2022-10-13T01:44:33;99485.03;;;7.43;100.00
51099;BME280;37146;48.210;16.234;2022-10-13T01:47:00;99493.31;;;7.34;100.00
51099;BME280;37146;48.210;16.234;2022-10-13T01:49:26;99488.59;;;7.43;100.00
51099;BME280;37146;48.210;16.234;2022-10-13T01:51:53;99487.59;;;7.46;100.00
51099;BME280;37146;48.210;16.234;2022-10-13T01:54:19;99472.84;;;7.36;100.00
51099;BME280;37146;48.210;16.234;2022-10-13T01:56:50;99481.84;;;7.32;100.00
51099;BME280;37146;48.210;16.234;2022-10-13T01:59:16;99476.28;;;7.39;100.00
51099;BME280;37146;48.210;16.234;2022-10-13T02:01:53;99480.72;;;7.39;100.00
51099;BME280;37146;48.210;16.234;2022-10-13T02:07:24;99480.00;;;7.62;100.00
51099;BME280;37146;48.210;16.234;2022-10-13T02:15:16;99479.09;;;7.63;100.00
51099;BME280;37146;48.210;16.234;2022-10-13T02:17:43;99473.22;;;7.80;100.00
51099;BME280;37146;48.210;16.234;2022-10-13T02:20:08;99481.50;;;7.71;100.00
51099;BME280;37146;48.210;16.234;2022-10-13T02:22:40;99483.47;;;7.93;100.00
51099;BME280;37146;48.210;16.234;2022-10-13T02:25:07;99478.63;;;7.77;100.00
51099;BME280;37146;48.210;16.234;2022-10-13T02:27:32;99479.66;;;8.00;100.00
51099;BME280;37146;48.210;16.234;2022-10-13T02:29:58;99477.84;;;8.00;100.00
51099;BME280;37146;48.210;16.234;2022-10-13T02:32:23;99488.34;;;8.05;100.00
51099;BME280;37146;48.210;16.234;2022-10-13T02:34:49;99483.97;;;8.04;100.00
51099;BME280;37146;48.210;16.234;2022-10-13T02:37:14;99480.19;;;8.11;100.00
51099;BME280;37146;48.210;16.234;2022-10-13T02:39:40;99473.72;;;7.92;100.00
51099;BME280;37146;48.210;16.234;2022-10-13T02:42:05;99473.72;;;7.92;100.00
51099;BME280;37146;48.210;16.234;2022-10-13T02:44:31;99472.47;;;7.75;100.00
51099;BME280;37146;48.210;16.234;2022-10-13T02:46:56;99475.19;;;8.00;100.00
51099;BME280;37146;48.210;16.234;2022-10-13T02:49:21;99481.84;;;8.14;100.00
51099;BME280;37146;48.210;16.234;2022-10-13T02:51:46;99479.03;;;8.18;100.00
51099;BME280;37146;48.210;16.234;2022-10-13T02:54:12;99476.19;;;8.23;100.00
51099;BME280;37146;48.210;16.234;2022-10-13T02:56:37;99475.19;;;8.27;100.00
51099;BME280;37146;48.210;16.234;2022-10-13T02:59:02;99472.59;;;8.26;100.00
51099;BME280;37146;48.210;16.234;2022-10-13T03:01:27;99475.66;;;8.13;100.00
51099;BME280;37146;48.210;16.234;2022-10-13T03:03:53;99474.34;;;8.25;100.00
51099;BME280;37146;48.210;16.234;2022-10-13T03:06:18;99474.19;;;8.30;100.00
51099;BME280;37146;48.210;16.234;2022-10-13T03:08:43;99467.53;;;8.16;100.00
51099;BME280;37146;48.210;16.234;2022-10-13T03:11:08;99467.44;;;8.19;100.00
51099;BME280;37146;48.210;16.234;2022-10-13T03:13:35;99469.41;;;8.14;100.00
51099;BME280;37146;48.210;16.234;2022-10-13T03:16:00;99471.00;;;8.20;100.00
51099;BME280;37146;48.210;16.234;2022-10-13T03:18:25;99470.28;;;8.15;100.00
51099;BME280;37146;48.210;16.234;2022-10-13T03:20:54;99469.00;;;8.27;100.00
51099;BME280;37146;48.210;16.234;2022-10-13T03:23:20;99471.03;;;8.18;100.00
51099;BME280;37146;48.210;16.234;2022-10-13T03:25:45;99470.44;;;8.10;100.00
51099;BME280;37146;48.210;16.234;2022-10-13T03:28:10;99468.88;;;8.30;100.00
51099;BME280;37146;48.210;16.234;2022-10-13T03:30:35;99472.03;;;8.41;100.00
51099;BME280;37146;48.210;16.234;2022-10-13T03:33:01;99467.63;;;8.40;100.00
51099;BME280;37146;48.210;16.234;2022-10-13T03:35:26;99468.94;;;8.28;100.00
51099;BME280;37146;48.210;16.234;2022-10-13T03:37:51;99472.44;;;8.29;100.00
51099;BME280;37146;48.210;16.234;2022-10-13T03:40:17;99468.66;;;8.36;100.00
51099;BME280;37146;48.210;16.234;2022-10-13T03:42:43;99464.94;;;8.40;100.00
51099;BME280;37146;48.210;16.234;2022-10-13T03:45:08;99467.88;;;8.32;100.00
51099;BME280;37146;48.210;16.234;2022-10-13T03:47:34;99468.53;;;8.39;100.00
51099;BME280;37146;48.210;16.234;2022-10-13T03:50:00;99469.97;;;8.49;100.00
51099;BME280;37146;48.210;16.234;2022-10-13T03:52:25;99468.13;;;8.51;100.00
51099;BME280;37146;48.210;16.234;2022-10-13T03:54:50;99472.75;;;8.46;100.00
51099;BME280;37146;48.210;16.234;2022-10-13T03:57:15;99474.88;;;8.62;100.00
51099;BME280;37146;48.210;16.234;2022-10-13T03:59:40;99471.19;;;8.66;100.00
51099;BME280;37146;48.210;16.234;2022-10-13T04:02:06;99463.56;;;8.55;100.00
51099;BME280;37146;48.210;16.234;2022-10-13T04:04:31;99467.94;;;8.58;100.00
51099;BME280;37146;48.210;16.234;2022-10-13T04:06:57;99472.28;;;8.60;100.00
51099;BME280;37146;48.210;16.234;2022-10-13T04:09:22;99471.19;;;8.66;100.00
51099;BME280;37146;48.210;16.234;2022-10-13T04:11:50;99465.94;;;8.63;100.00
51099;BME280;37146;48.210;16.234;2022-10-13T04:14:15;99464.75;;;8.72;100.00
51099;BME280;37146;48.210;16.234;2022-10-13T04:16:41;99456.69;;;8.73;100.00
51099;BME280;37146;48.210;16.234;2022-10-13T04:19:06;99457.28;;;8.81;100.00
51099;BME280;37146;48.210;16.234;2022-10-13T04:21:32;99458.09;;;8.84;100.00
51099;BME280;37146;48.210;16.234;2022-10-13T04:23:58;99459.50;;;8.70;100.00
51099;BME280;37146;48.210;16.234;2022-10-13T04:26:25;99454.94;;;8.72;100.00
51099;BME280;37146;48.210;16.234;2022-10-13T04:28:50;99462.50;;;8.85;100.00
51099;BME280;37146;48.210;16.234;2022-10-13T04:31:16;99463.09;;;8.93;100.00
51099;BME280;37146;48.210;16.234;2022-10-13T04:33:41;99466.56;;;8.95;100.00
51099;BME280;37146;48.210;16.234;2022-10-13T04:36:09;99462.03;;;8.97;100.00
51099;BME280;37146;48.210;16.234;2022-10-13T04:38:35;99463.09;;;8.93;100.00
51099;BME280;37146;48.210;16.234;2022-10-13T04:41:01;99471.03;;;8.94;100.00
51099;BME280;37146;48.210;16.234;2022-10-13T04:43:27;99471.03;;;8.94;100.00
51099;BME280;37146;48.210;16.234;2022-10-13T04:45:52;99474.72;;;8.90;100.00
51099;BME280;37146;48.210;16.234;2022-10-13T04:48:18;99473.16;;;9.08;100.00
51099;BME280;37146;48.210;16.234;2022-10-13T04:50:43;99474.19;;;9.04;100.00
51099;BME280;37146;48.210;16.234;2022-10-13T04:53:08;99471.31;;;9.10;100.00
51099;BME280;37146;48.210;16.234;2022-10-13T04:55:34;99473.63;;;9.20;100.00
51099;BME280;37146;48.210;16.234;2022-10-13T04:57:59;99471.69;;;9.23;100.00
51099;BME280;37146;48.210;16.234;2022-10-13T05:00:24;99466.50;;;9.20;100.00
51099;BME280;37146;48.210;16.234;2022-10-13T05:02:50;99458.31;;;9.25;100.00
51099;BME280;37146;48.210;16.234;2022-10-13T05:05:15;99472.69;;;9.21;100.00
51099;BME280;37146;48.210;16.234;2022-10-13T05:07:40;99469.97;;;9.22;100.00
51099;BME280;37146;48.210;16.234;2022-10-13T05:10:05;99470.97;;;9.20;100.00
51099;BME280;37146;48.210;16.234;2022-10-13T05:12:31;99467.47;;;9.18;100.00
51099;BME280;37146;48.210;16.234;2022-10-13T05:14:56;99471.84;;;9.20;100.00
51099;BME280;37146;48.210;16.234;2022-10-13T05:17:22;99466.53;;;9.19;100.00
51099;BME280;37146;48.210;16.234;2022-10-13T05:19:48;99460.81;;;9.30;100.00
51099;BME280;37146;48.210;16.234;2022-10-13T05:22:13;99476.19;;;9.23;100.00
51099;BME280;37146;48.210;16.234;2022-10-13T05:24:38;99471.97;;;9.17;100.00
51099;BME280;37146;48.210;16.234;2022-10-13T05:27:08;99473.00;;;9.13;100.00
51099;BME280;37146;48.210;16.234;2022-10-13T05:29:34;99473.88;;;9.13;100.00
51099;BME280;37146;48.210;16.234;2022-10-13T05:32:00;99474.81;;;9.12;100.00
51099;BME280;37146;48.210;16.234;2022-10-13T05:34:25;99474.94;;;9.32;100.00
51099;BME280;37146;48.210;16.234;2022-10-13T05:36:50;99480.53;;;9.25;100.00
51099;BME280;37146;48.210;16.234;2022-10-13T05:39:16;99478.28;;;9.15;100.00
51099;BME280;37146;48.210;16.234;2022-10-13T05:41:41;99482.84;;;9.11;100.00
51099;BME280;37146;48.210;16.234;2022-10-13T05:44:07;99488.38;;;9.06;100.00
51099;BME280;37146;48.210;16.234;2022-10-13T05:46:32;99485.41;;;9.14;100.00
51099;BME280;37146;48.210;16.234;2022-10-13T05:48:58;99478.31;;;9.37;100.00
51099;BME280;37146;48.210;16.234;2022-10-13T05:51:33;99495.53;;;9.28;100.00
51099;BME280;37146;48.210;16.234;2022-10-13T05:56:45;99489.25;;;9.31;100.00
51099;BME280;37146;48.210;16.234;2022-10-13T05:59:14;99500.66;;;9.34;100.00
51099;BME280;37146;48.210;16.234;2022-10-13T06:01:40;99495.25;;;9.36;100.00
51099;BME280;37146;48.210;16.234;2022-10-13T06:04:10;99494.84;;;9.47;100.00
51099;BME280;37146;48.210;16.234;2022-10-13T06:06:37;99488.44;;;9.51;100.00
51099;BME280;37146;48.210;16.234;2022-10-13T06:09:04;99492.00;;;9.51;100.00
51099;BME280;37146;48.210;16.234;2022-10-13T06:11:29;99492.03;;;9.50;100.00
51099;BME280;37146;48.210;16.234;2022-10-13T06:13:54;99497.97;;;9.58;100.00
51099;BME280;37146;48.210;16.234;2022-10-13T06:16:19;99500.03;;;9.50;100.00
51099;BME280;37146;48.210;16.234;2022-10-13T06:18:45;99507.09;;;9.52;100.00
51099;BME280;37146;48.210;16.234;2022-10-13T06:21:10;99500.97;;;9.49;100.00
51099;BME280;37146;48.210;16.234;2022-10-13T06:23:36;99502.72;;;9.50;100.00
51099;BME280;37146;48.210;16.234;2022-10-13T06:26:01;99501.56;;;9.57;100.00
51099;BME280;37146;48.210;16.234;2022-10-13T06:28:26;99506.84;;;9.58;100.00
51099;BME280;37146;48.210;16.234;2022-10-13T06:30:52;99504.53;;;9.49;100.00
51099;BME280;37146;48.210;16.234;2022-10-13T06:33:19;99505.16;;;9.56;100.00
51099;BME280;37146;48.210;16.234;2022-10-13T06:35:44;99506.31;;;9.49;100.00
51099;BME280;37146;48.210;16.234;2022-10-13T06:38:09;99504.41;;;9.52;100.00
51099;BME280;37146;48.210;16.234;2022-10-13T06:40:35;99499.81;;;9.56;100.00
51099;BME280;37146;48.210;16.234;2022-10-13T06:43:00;99504.22;;;9.57;100.00
51099;BME280;37146;48.210;16.234;2022-10-13T06:45:25;99494.59;;;9.53;100.00
51099;BME280;37146;48.210;16.234;2022-10-13T06:47:51;99497.81;;;9.61;100.00
51099;BME280;37146;48.210;16.234;2022-10-13T06:50:17;99495.59;;;9.72;100.00
51099;BME280;37146;48.210;16.234;2022-10-13T06:52:42;99487.72;;;9.69;100.00
51099;BME280;37146;48.210;16.234;2022-10-13T06:55:08;99492.88;;;9.74;100.00
51099;BME280;37146;48.210;16.234;2022-10-13T06:57:33;99496.03;;;9.84;100.00
51099;BME280;37146;48.210;16.234;2022-10-13T06:59:58;99487.78;;;9.90;100.00
51099;BME280;37146;48.210;16.234;2022-10-13T07:02:23;99494.72;;;9.94;100.00
51099;BME280;37146;48.210;16.234;2022-10-13T07:04:49;99495.22;;;9.82;100.00
51099;BME280;37146;48.210;16.234;2022-10-13T07:07:14;99494.91;;;9.67;100.00
51099;BME280;37146;48.210;16.234;2022-10-13T07:09:40;99492.66;;;9.56;100.00
51099;BME280;37146;48.210;16.234;2022-10-13T07:12:05;99494.38;;;9.59;100.00
51099;BME280;37146;48.210;16.234;2022-10-13T07:14:31;99494.66;;;9.73;100.00
51099;BME280;37146;48.210;16.234;2022-10-13T07:16:57;99489.88;;;9.82;100.00
51099;BME280;37146;48.210;16.234;2022-10-13T07:19:22;99488.38;;;9.74;100.00
51099;BME280;37146;48.210;16.234;2022-10-13T07:21:47;99485.28;;;9.85;100.00
51099;BME280;37146;48.210;16.234;2022-10-13T07:24:12;99493.94;;;9.92;100.00
51099;BME280;37146;48.210;16.234;2022-10-13T07:26:38;99495.72;;;9.69;100.00
51099;BME280;37146;48.210;16.234;2022-10-13T07:29:03;99488.38;;;9.74;100.00
51099;BME280;37146;48.210;16.234;2022-10-13T07:31:28;99489.56;;;9.67;100.00
51099;BME280;37146;48.210;16.234;2022-10-13T07:33:54;99479.44;;;9.75;100.00
51099;BME280;37146;48.210;16.234;2022-10-13T07:36:21;99479.75;;;9.90;100.00
51099;BME280;37146;48.210;16.234;2022-10-13T07:38:46;99485.22;;;9.87;100.00
51099;BME280;37146;48.210;16.234;2022-10-13T07:41:11;99485.66;;;9.98;100.00
51099;BME280;37146;48.210;16.234;2022-10-13T07:43:37;99477.97;;;10.11;100.00
51099;BME280;37146;48.210;16.234;2022-10-13T07:46:03;99484.84;;;10.17;100.00
51099;BME280;37146;48.210;16.234;2022-10-13T07:48:28;99479.50;;;10.17;100.00
51099;BME280;37146;48.210;16.234;2022-10-13T07:50:54;99479.88;;;10.30;100.00
51099;BME280;37146;48.210;16.234;2022-10-13T07:53:19;99488.09;;;10.25;100.00
51099;BME280;37146;48.210;16.234;2022-10-13T07:55:44;99493.03;;;10.34;100.00
51099;BME280;37146;48.210;16.234;2022-10-13T07:58:09;99489.81;;;10.26;100.00
51099;BME280;37146;48.210;16.234;2022-10-13T08:00:35;99489.81;;;10.26;100.00
51099;BME280;37146;48.210;16.234;2022-10-13T08:03:00;99496.13;;;10.25;100.00
51099;BME280;37146;48.210;16.234;2022-10-13T08:05:25;99497.63;;;10.31;100.00
51099;BME280;37146;48.210;16.234;2022-10-13T08:07:50;99493.25;;;10.30;100.00
51099;BME280;37146;48.210;16.234;2022-10-13T08:10:16;99488.88;;;10.27;100.00
51099;BME280;37146;48.210;16.234;2022-10-13T08:12:41;99494.09;;;10.30;100.00
51099;BME280;37146;48.210;16.234;2022-10-13T08:15:06;99487.75;;;10.33;100.00
51099;BME280;37146;48.210;16.234;2022-10-13T08:17:32;99498.28;;;10.38;100.00
51099;BME280;37146;48.210;16.234;2022-10-13T08:19:57;99491.41;;;10.52;100.00
51099;BME280;37146;48.210;16.234;2022-10-13T08:22:22;99482.97;;;10.62;100.00
51099;BME280;37146;48.210;16.234;2022-10-13T08:24:48;99480.16;;;10.65;100.00
51099;BME280;37146;48.210;16.234;2022-10-13T08:27:16;99480.16;;;10.65;100.00
51099;BME280;37146;48.210;16.234;2022-10-13T08:29:42;99483.56;;;10.69;100.00
51099;BME280;37146;48.210;16.234;2022-10-13T08:32:07;99485.16;;;10.73;100.00
51099;BME280;37146;48.210;16.234;2022-10-13T08:34:33;99480.31;;;10.81;100.00
51099;BME280;37146;48.210;16.234;2022-10-13T08:37:00;99480.88;;;10.89;100.00
51099;BME280;37146;48.210;16.234;2022-10-13T08:39:25;99478.03;;;10.73;100.00
51099;BME280;37146;48.210;16.234;2022-10-13T08:41:51;99472.63;;;10.94;100.00
51099;BME280;37146;48.210;16.234;2022-10-13T08:44:34;99477.75;;;10.98;100.00
51099;BME280;37146;48.210;16.234;2022-10-13T08:47:03;99479.22;;;11.06;100.00
51099;BME280;37146;48.210;16.234;2022-10-13T08:49:31;99470.38;;;10.85;100.00
51099;BME280;37146;48.210;16.234;2022-10-13T08:51:56;99475.00;;;11.00;100.00
51099;BME280;37146;48.210;16.234;2022-10-13T08:54:22;99480.94;;;11.07;100.00
51099;BME280;37146;48.210;16.234;2022-10-13T08:56:48;99473.72;;;11.09;100.00
51099;BME280;37146;48.210;16.234;2022-10-13T08:59:15;99479.22;;;11.06;100.00
51099;BME280;37146;48.210;16.234;2022-10-13T09:01:42;99484.50;;;11.07;100.00
51099;BME280;37146;48.210;16.234;2022-10-13T09:04:31;99476.31;;;11.29;100.00
51099;BME280;37146;48.210;16.234;2022-10-13T09:09:25;99470.97;;;11.49;100.00
51099;BME280;37146;48.210;16.234;2022-10-13T09:11:50;99473.06;;;11.42;100.00
51099;BME280;37146;48.210;16.234;2022-10-13T09:14:20;99468.78;;;11.57;100.00
51099;BME280;37146;48.210;16.234;2022-10-13T09:16:49;99465.19;;;11.39;100.00
51099;BME280;37146;48.210;16.234;2022-10-13T09:21:51;99461.69;;;11.37;100.00
51099;BME280;37146;48.210;16.234;2022-10-13T09:24:17;99457.56;;;11.49;100.00
51099;BME280;37146;48.210;16.234;2022-10-13T09:26:44;99455.75;;;11.49;100.00
51099;BME280;37146;48.210;16.234;2022-10-13T09:29:19;99453.59;;;11.57;100.00
51099;BME280;37146;48.210;16.234;2022-10-13T09:31:48;99454.94;;;11.47;100.00
51099;BME280;37146;48.210;16.234;2022-10-13T09:36:38;99455.06;;;11.63;100.00
51099;BME280;37146;48.210;16.234;2022-10-13T09:39:09;99461.94;;;11.69;100.00
51099;BME280;37146;48.210;16.234;2022-10-13T09:41:36;99465.41;;;11.71;100.00
51099;BME280;37146;48.210;16.234;2022-10-13T09:44:05;99457.56;;;11.85;100.00
51099;BME280;37146;48.210;16.234;2022-10-13T09:46:35;99455.38;;;11.94;100.00
51099;BME280;37146;48.210;16.234;2022-10-13T09:49:06;99447.44;;;12.10;100.00
51099;BME280;37146;48.210;16.234;2022-10-13T09:51:42;99446.88;;;12.03;100.00
51099;BME280;37146;48.210;16.234;2022-10-13T09:59:51;99454.81;;;11.87;100.00
51099;BME280;37146;48.210;16.234;2022-10-13T10:02:31;99457.00;;;11.79;100.00
51099;BME280;37146;48.210;16.234;2022-10-13T10:05:00;99457.16;;;11.75;100.00
51099;BME280;37146;48.210;16.234;2022-10-13T10:07:29;99455.47;;;11.92;100.00
51099;BME280;37146;48.210;16.234;2022-10-13T10:09:56;99453.50;;;11.96;100.00
51099;BME280;37146;48.210;16.234;2022-10-13T10:12:27;99462.53;;;12.12;100.00
51099;BME280;37146;48.210;16.234;2022-10-13T10:14:53;99454.25;;;12.17;100.00
51099;BME280;37146;48.210;16.234;2022-10-13T10:27:39;99445.31;;;12.16;100.00
51099;BME280;37146;48.210;16.234;2022-10-13T10:30:15;99448.94;;;12.15;100.00
51099;BME280;37146;48.210;16.234;2022-10-13T10:33:03;99456.25;;;11.94;100.00
51099;BME280;37146;48.210;16.234;2022-10-13T10:46:14;99441.22;;;12.09;100.00
51099;BME280;37146;48.210;16.234;2022-10-13T10:48:40;99438.56;;;12.09;100.00
51099;BME280;37146;48.210;16.234;2022-10-13T10:51:07;99439.28;;;11.94;100.00
51099;BME280;37146;48.210;16.234;2022-10-13T10:56:15;99431.59;;;12.05;100.00
51099;BME280;37146;48.210;16.234;2022-10-13T11:06:33;99424.56;;;12.20;100.00
51099;BME280;37146;48.210;16.234;2022-10-13T11:08:59;99426.09;;;12.08;100.00
51099;BME280;37146;48.210;16.234;2022-10-13T11:13:59;99422.69;;;12.04;100.00
51099;BME280;37146;48.210;16.234;2022-10-13T11:16:26;99422.75;;;12.03;100.00
51099;BME280;37146;48.210;16.234;2022-10-13T11:18:56;99423.91;;;11.97;100.00
51099;BME280;37146;48.210;16.234;2022-10-13T11:27:05;99403.00;;;12.05;100.00
51099;BME280;37146;48.210;16.234;2022-10-13T11:32:21;99401.81;;;12.11;100.00
51099;BME280;37146;48.210;16.234;2022-10-13T11:37:26;99392.63;;;12.15;100.00
51099;BME280;37146;48.210;16.234;2022-10-13T11:42:30;99378.44;;;12.31;100.00
51099;BME280;37146;48.210;16.234;2022-10-13T11:45:01;99383.00;;;12.29;100.00
51099;BME280;37146;48.210;16.234;2022-10-13T11:58:11;99361.00;;;12.40;100.00
51099;BME280;37146;48.210;16.234;2022-10-13T12:00:47;99357.13;;;12.28;100.00
51099;BME280;37146;48.210;16.234;2022-10-13T12:03:18;99349.22;;;12.42;100.00
51099;BME280;37146;48.210;16.234;2022-10-13T12:05:43;99344.63;;;12.28;100.00
51099;BME280;37146;48.210;16.234;2022-10-13T12:08:11;99335.28;;;12.35;100.00
51099;BME280;37146;48.210;16.234;2022-10-13T12:10:36;99332.22;;;12.26;100.00
51099;BME280;37146;48.210;16.234;2022-10-13T12:13:03;99329.94;;;12.51;100.00
51099;BME280;37146;48.210;16.234;2022-10-13T12:15:33;99335.72;;;12.44;100.00
51099;BME280;37146;48.210;16.234;2022-10-13T12:17:59;99335.53;;;12.31;100.00
51099;BME280;37146;48.210;16.234;2022-10-13T12:20:26;99326.28;;;12.36;100.00
51099;BME280;37146;48.210;16.234;2022-10-13T12:22:52;99329.66;;;12.40;100.00
51099;BME280;37146;48.210;16.234;2022-10-13T12:25:19;99326.91;;;12.58;100.00
51099;BME280;37146;48.210;16.234;2022-10-13T12:27:45;99325.53;;;12.50;100.00
51099;BME280;37146;48.210;16.234;2022-10-13T12:30:24;99324.28;;;12.40;100.00
51099;BME280;37146;48.210;16.234;2022-10-13T12:32:50;99320.50;;;12.44;100.00
51099;BME280;37146;48.210;16.234;2022-10-13T12:35:18;99322.59;;;12.71;100.00
51099;BME280;37146;48.210;16.234;2022-10-13T12:37:43;99319.34;;;12.82;100.00
51099;BME280;37146;48.210;16.234;2022-10-13T12:40:12;99315.75;;;12.81;100.00
51099;BME280;37146;48.210;16.234;2022-10-13T12:42:38;99320.19;;;12.82;100.00
51099;BME280;37146;48.210;16.234;2022-10-13T12:45:03;99315.97;;;12.78;100.00
51099;BME280;37146;48.210;16.234;2022-10-13T12:47:37;99320.19;;;12.82;100.00
51099;BME280;37146;48.210;16.234;2022-10-13T12:52:47;99309.63;;;12.79;100.00
51099;BME280;37146;48.210;16.234;2022-10-13T12:55:12;99312.66;;;12.73;100.00
51099;BME280;37146;48.210;16.234;2022-10-13T12:57:40;99311.81;;;12.73;100.00
51099;BME280;37146;48.210;16.234;2022-10-13T13:02:50;99309.97;;;12.73;100.00
51099;BME280;37146;48.210;16.234;2022-10-13T13:07:53;99301.56;;;12.79;100.00
51099;BME280;37146;48.210;16.234;2022-10-13T13:10:19;99303.75;;;12.57;100.00
51099;BME280;37146;48.210;16.234;2022-10-13T13:12:45;99298.69;;;12.50;100.00
51099;BME280;37146;48.210;16.234;2022-10-13T13:17:48;99290.56;;;12.68;100.00
51099;BME280;37146;48.210;16.234;2022-10-13T13:20:18;99294.91;;;12.87;100.00
51099;BME280;37146;48.210;16.234;2022-10-13T13:22:43;99292.22;;;12.87;100.00
51099;BME280;37146;48.210;16.234;2022-10-13T13:25:08;99295.69;;;12.89;100.00
51099;BME280;37146;48.210;16.234;2022-10-13T13:27:35;99296.72;;;12.70;100.00
51099;BME280;37146;48.210;16.234;2022-10-13T13:30:02;99282.78;;;12.79;100.00
51099;BME280;37146;48.210;16.234;2022-10-13T13:32:28;99294.22;;;12.83;100.00
51099;BME280;37146;48.210;16.234;2022-10-13T13:34:54;99281.53;;;13.01;100.00
51099;BME280;37146;48.210;16.234;2022-10-13T13:37:30;99281.91;;;13.11;100.00
51099;BME280;37146;48.210;16.234;2022-10-13T13:39:56;99283.59;;;13.28;100.00
51099;BME280;37146;48.210;16.234;2022-10-13T13:42:21;99275.06;;;13.05;100.00
51099;BME280;37146;48.210;16.234;2022-10-13T13:44:47;99279.81;;;13.16;100.00
51099;BME280;37146;48.210;16.234;2022-10-13T13:47:16;99275.84;;;13.07;100.00
51099;BME280;37146;48.210;16.234;2022-10-13T13:49:42;99275.16;;;13.04;100.00
51099;BME280;37146;48.210;16.234;2022-10-13T13:52:07;99272.63;;;13.17;100.00
51099;BME280;37146;48.210;16.234;2022-10-13T13:54:32;99274.97;;;13.23;100.00
51099;BME280;37146;48.210;16.234;2022-10-13T13:56:57;99269.38;;;13.26;100.00
51099;BME280;37146;48.210;16.234;2022-10-13T13:59:23;99273.22;;;13.22;100.00
51099;BME280;37146;48.210;16.234;2022-10-13T14:01:48;99267.84;;;13.22;100.00
51099;BME280;37146;48.210;16.234;2022-10-13T14:04:13;99264.91;;;13.26;100.00
51099;BME280;37146;48.210;16.234;2022-10-13T14:06:38;99270.78;;;13.33;100.00
51099;BME280;37146;48.210;16.234;2022-10-13T14:09:04;99272.22;;;13.39;100.00
51099;BME280;37146;48.210;16.234;2022-10-13T14:11:29;99275.09;;;13.36;100.00
51099;BME280;37146;48.210;16.234;2022-10-13T14:13:54;99271.78;;;13.30;100.00
51099;BME280;37146;48.210;16.234;2022-10-13T14:16:22;99263.66;;;13.32;100.00
51099;BME280;37146;48.210;16.234;2022-10-13T14:18:47;99260.09;;;13.32;100.00
51099;BME280;37146;48.210;16.234;2022-10-13T14:21:12;99258.09;;;13.35;100.00
51099;BME280;37146;48.210;16.234;2022-10-13T14:23:37;99248.28;;;13.34;100.00
51099;BME280;37146;48.210;16.234;2022-10-13T14:26:05;99252.41;;;13.25;100.00
51099;BME280;37146;48.210;16.234;2022-10-13T14:28:31;99239.38;;;13.34;100.00
51099;BME280;37146;48.210;16.234;2022-10-13T14:30:56;99237.56;;;13.34;100.00
51099;BME280;37146;48.210;16.234;2022-10-13T14:33:21;99240.34;;;13.33;100.00